Time;durP1;ratioP1;P1;durP2;ratioP2;P2;SDS_P1;SDS_P2;PMS_P1;PMS_P2;Temp;Humidity;BMP_temperature;BMP_pressure;BME280_temperature;BME280_humidity;BME280_pressure;Samples;Min_cycle;Max_cycle;Signal;HPM_P1;HPM_P2
2022/03/11 00:02:10;;;;;;;14.30;7.45;;;;;;;8.85;39.03;101687.06;5281125;28;20042;-74
2022/03/11 00:04:41;;;;;;;16.75;7.82;;;;;;;8.83;39.16;101694.19;5284847;28;20023;-74
2022/03/11 00:07:14;;;;;;;13.57;8.27;;;;;;;8.81;39.28;101702.09;5284949;28;20031;-74
2022/03/11 00:09:45;;;;;;;10.98;7.72;;;;;;;8.76;39.29;101694.56;5285733;28;20491;-74
2022/03/11 00:12:16;;;;;;;12.55;7.45;;;;;;;8.71;39.86;101693.16;5281760;28;20032;-74
2022/03/11 00:14:48;;;;;;;11.02;7.47;;;;;;;8.67;39.54;101687.28;5285039;28;20020;-74
2022/03/11 00:17:19;;;;;;;11.80;8.32;;;;;;;8.59;39.89;101673.03;5285391;28;20096;-74
2022/03/11 00:19:50;;;;;;;11.52;7.50;;;;;;;8.71;39.43;101678.34;5287990;28;20016;-74
2022/03/11 00:22:22;;;;;;;11.45;7.95;;;;;;;8.66;39.78;101677.78;5284383;28;20039;-74
2022/03/11 00:24:53;;;;;;;11.80;8.10;;;;;;;8.62;39.94;101675.47;5285269;28;20024;-74
2022/03/11 00:27:24;;;;;;;12.38;8.02;;;;;;;8.59;40.02;101673.88;5284426;28;20477;-74
2022/03/11 00:29:56;;;;;;;13.02;8.48;;;;;;;8.51;40.28;101678.75;5283568;28;20027;-74
2022/03/11 00:32:27;;;;;;;10.05;7.60;;;;;;;8.49;40.36;101678.84;5284999;28;20102;-74
2022/03/11 00:34:58;;;;;;;15.45;8.15;;;;;;;8.48;40.49;101681.53;5282727;28;20021;-74
2022/03/11 00:37:30;;;;;;;12.48;8.02;;;;;;;8.39;40.69;101680.34;5282785;28;20028;-74
2022/03/11 00:40:01;;;;;;;12.50;7.80;;;;;;;8.33;40.92;101679.84;5286290;28;20025;-74
2022/03/11 00:42:33;;;;;;;11.35;7.47;;;;;;;8.37;41.18;101676.13;5265929;28;20404;-74
2022/03/11 00:45:05;;;;;;;13.68;8.80;;;;;;;8.28;41.27;101674.94;5284844;28;20031;-74
2022/03/11 00:47:36;;;;;;;15.27;7.95;;;;;;;8.17;41.24;101675.56;5278350;28;21111;-74
2022/03/11 00:50:08;;;;;;;13.65;8.32;;;;;;;8.07;42.18;101673.63;5284051;28;20078;-74
2022/03/11 00:52:41;;;;;;;14.30;8.63;;;;;;;8.03;41.51;101668.63;5263694;28;20028;-74
2022/03/11 00:55:13;;;;;;;12.40;8.27;;;;;;;8.02;41.84;101664.31;5283017;28;20036;-74
2022/03/11 00:57:44;;;;;;;14.95;8.68;;;;;;;7.95;42.15;101660.38;5285272;28;20112;-74
2022/03/11 01:00:16;;;;;;;13.48;8.48;;;;;;;7.95;41.99;101656.94;5282039;28;20024;-74
2022/03/11 01:02:47;;;;;;;14.07;8.23;;;;;;;7.80;42.63;101646.53;5283690;28;20480;-74
2022/03/11 01:05:22;;;;;;;15.45;8.50;;;;;;;7.90;42.66;101651.19;5283399;28;20031;-74
2022/03/11 01:07:53;;;;;;;11.07;7.90;;;;;;;7.78;42.41;101653.59;5285255;28;20560;-74
2022/03/11 01:10:24;;;;;;;15.43;9.05;;;;;;;7.77;43.11;101649.31;5284912;28;20107;-74
2022/03/11 01:12:56;;;;;;;15.15;8.32;;;;;;;7.63;43.43;101638.88;5285127;28;20021;-74
2022/03/11 01:15:27;;;;;;;14.00;8.30;;;;;;;7.69;42.97;101637.63;5284866;28;20099;-74
2022/03/11 01:17:59;;;;;;;15.50;8.90;;;;;;;7.67;42.74;101636.91;5287873;28;20027;-74
2022/03/11 01:20:30;;;;;;;14.82;8.38;;;;;;;7.55;43.34;101626.28;5284172;28;20025;-74
2022/03/11 01:23:01;;;;;;;14.30;8.50;;;;;;;7.59;43.08;101628.72;5282138;28;20059;-74
2022/03/11 01:25:32;;;;;;;13.95;8.93;;;;;;;7.49;43.22;101626.63;5281692;28;20070;-74
2022/03/11 01:28:04;;;;;;;13.02;9.05;;;;;;;7.53;42.89;101629.91;5283687;28;20430;-74
2022/03/11 01:30:35;;;;;;;15.70;8.90;;;;;;;7.44;43.33;101618.25;5282721;28;20377;-74
2022/03/11 01:33:07;;;;;;;14.02;8.38;;;;;;;7.39;43.68;101622.91;5284195;28;20464;-74
2022/03/11 01:35:38;;;;;;;12.95;8.57;;;;;;;7.44;43.33;101620.88;5282368;28;20028;-74
2022/03/11 01:38:10;;;;;;;15.68;9.05;;;;;;;7.47;43.27;101618.09;5284687;28;20102;-74
2022/03/11 01:40:41;;;;;;;14.35;8.95;;;;;;;7.39;43.61;101609.03;5283684;28;20540;-74
2022/03/11 01:43:17;;;;;;;14.85;9.65;;;;;;;7.29;44.39;101609.56;5285304;28;20465;-74
2022/03/11 01:45:48;;;;;;;14.05;8.95;;;;;;;7.28;43.85;101607.06;5282811;28;20029;-74
2022/03/11 01:48:19;;;;;;;13.30;8.88;;;;;;;7.31;43.87;101602.50;5283649;28;20035;-74
2022/03/11 01:50:51;;;;;;;14.38;8.70;;;;;;;7.34;43.92;101596.25;5285304;28;20016;-74
2022/03/11 01:53:22;;;;;;;16.55;9.23;;;;;;;7.28;44.23;101588.81;5283377;28;20485;-74
2022/03/11 01:55:54;;;;;;;14.60;8.63;;;;;;;7.24;44.14;101589.94;5313802;22;20075;-73
2022/03/11 01:58:27;;;;;;;13.95;8.80;;;;;;;7.29;43.45;101570.47;5265868;28;20113;-71
2022/03/11 02:00:58;;;;;;;14.55;9.13;;;;;;;7.26;44.29;101578.47;5274259;28;20489;-71
2022/03/11 02:03:31;;;;;;;11.90;8.20;;;;;;;7.23;44.16;101575.19;5268282;28;20041;-71
2022/03/11 02:06:03;;;;;;;12.17;8.43;;;;;;;7.23;43.83;101576.03;5269945;28;20017;-71
2022/03/11 02:08:35;;;;;;;13.82;9.07;;;;;;;7.22;44.11;101576.13;5267843;28;20060;-71
2022/03/11 02:11:07;;;;;;;12.77;8.27;;;;;;;7.18;43.36;101551.19;5265482;28;20139;-71
2022/03/11 02:13:46;;;;;;;12.45;8.68;;;;;;;7.29;43.90;101565.25;5266246;28;20499;-71
2022/03/11 02:16:22;;;;;;;12.55;8.55;;;;;;;7.16;43.86;101553.03;5263918;28;20029;-71
2022/03/11 02:18:54;;;;;;;14.52;8.38;;;;;;;7.10;44.33;101545.59;5265985;28;20221;-71
2022/03/11 02:21:29;;;;;;;13.82;8.65;;;;;;;7.10;44.63;101556.84;5263742;28;20534;-71
2022/03/11 02:24:01;;;;;;;14.02;8.23;;;;;;;7.10;43.65;101546.44;5266117;28;20039;-71
2022/03/11 02:26:32;;;;;;;16.08;9.38;;;;;;;7.16;43.72;101537.41;5264266;28;20033;-71
2022/03/11 02:29:07;;;;;;;13.02;8.43;;;;;;;7.24;43.24;101543.03;5266401;28;20571;-71
2022/03/11 02:31:38;;;;;;;11.88;8.05;;;;;;;7.15;43.89;101533.13;5266755;28;20020;-71
2022/03/11 02:34:10;;;;;;;11.13;8.63;;;;;;;7.20;43.08;101533.72;5264444;28;20048;-71
2022/03/11 02:36:41;;;;;;;14.95;8.88;;;;;;;7.23;42.88;101533.50;5262457;28;20048;-72
2022/03/11 02:39:12;;;;;;;15.82;9.73;;;;;;;7.23;42.66;101523.91;5247462;28;20027;-70
2022/03/11 02:41:45;;;;;;;12.48;7.80;;;;;;;7.21;43.22;101527.56;5265192;28;20082;-71
2022/03/11 02:44:17;;;;;;;15.02;8.68;;;;;;;7.24;42.79;101530.00;5267210;28;20028;-72
2022/03/11 02:46:48;;;;;;;14.75;8.57;;;;;;;7.31;42.41;101520.84;5264963;28;20547;-72
2022/03/11 02:49:20;;;;;;;12.82;8.32;;;;;;;7.29;42.61;101525.31;5269453;28;20604;-71
2022/03/11 02:51:51;;;;;;;11.95;8.70;;;;;;;7.30;42.67;101524.38;5263683;28;20028;-72
2022/03/11 02:54:25;;;;;;;11.80;8.60;;;;;;;7.35;42.66;101529.31;5265461;28;20028;-71
2022/03/11 02:56:57;;;;;;;11.98;8.70;;;;;;;7.28;42.12;101529.72;5261743;28;20106;-71
2022/03/11 02:59:28;;;;;;;13.15;8.95;;;;;;;7.29;42.19;101514.91;5267554;28;20021;-71
2022/03/11 03:01:59;;;;;;;14.23;9.77;;;;;;;7.30;42.33;101513.97;5260922;28;20039;-71
2022/03/11 03:04:31;;;;;;;12.18;8.90;;;;;;;7.29;41.99;101512.28;5263843;28;20032;-71
2022/03/11 03:07:02;;;;;;;12.48;8.52;;;;;;;7.26;42.96;101512.47;5265186;28;20013;-72
2022/03/11 03:09:41;;;;;;;12.60;8.43;;;;;;;7.27;41.94;101509.78;5269381;28;20020;-71
2022/03/11 03:12:12;;;;;;;13.20;8.75;;;;;;;7.25;41.84;101506.44;5264718;28;20539;-71
2022/03/11 03:14:44;;;;;;;13.93;8.70;;;;;;;7.23;42.38;101510.06;5264539;28;20039;-72
2022/03/11 03:17:18;;;;;;;13.63;8.52;;;;;;;7.28;41.93;101506.25;5263507;28;20021;-71
2022/03/11 03:19:50;;;;;;;13.38;8.30;;;;;;;7.24;42.45;101507.38;5247502;28;20167;-72
2022/03/11 03:22:21;;;;;;;12.65;8.57;;;;;;;7.21;42.57;101507.53;5248478;28;20016;-71
2022/03/11 03:24:53;;;;;;;13.60;8.32;;;;;;;7.24;41.54;101509.13;5268511;28;20047;-71
2022/03/11 03:27:25;;;;;;;10.35;7.78;;;;;;;7.17;42.28;101503.44;5265760;28;20432;-71
2022/03/11 03:29:56;;;;;;;11.85;8.25;;;;;;;7.19;41.87;101504.19;5263873;28;20016;-72
2022/03/11 03:32:27;;;;;;;14.00;8.77;;;;;;;7.20;42.45;101508.47;5263393;28;20045;-72
2022/03/11 03:34:59;;;;;;;13.43;8.80;;;;;;;7.16;41.92;101493.09;5264148;28;20025;-72
2022/03/11 03:37:30;;;;;;;11.50;8.77;;;;;;;7.16;41.98;101504.38;5264976;28;20059;-71
2022/03/11 03:40:02;;;;;;;13.35;7.88;;;;;;;7.17;42.13;101500.00;5266572;28;20081;-71
2022/03/11 03:42:34;;;;;;;14.07;8.30;;;;;;;7.13;42.33;101494.16;5264046;28;20036;-71
2022/03/11 03:45:06;;;;;;;11.10;7.70;;;;;;;7.15;41.66;101502.69;5263440;28;20032;-71
2022/03/11 03:47:37;;;;;;;11.63;8.43;;;;;;;7.15;41.99;101494.03;5261524;28;20485;-71
2022/03/11 03:50:09;;;;;;;13.30;8.00;;;;;;;7.10;41.78;101490.88;5264207;28;20074;-71
2022/03/11 03:52:41;;;;;;;12.05;8.85;;;;;;;7.05;42.41;101499.81;5263168;28;20032;-71
2022/03/11 03:55:13;;;;;;;10.05;8.35;;;;;;;6.99;42.87;101494.94;5264882;28;20049;-71
2022/03/11 03:57:44;;;;;;;10.73;8.15;;;;;;;6.96;42.53;101495.13;5261736;28;20028;-71
2022/03/11 04:00:15;;;;;;;13.27;8.70;;;;;;;6.94;42.97;101489.19;5265589;28;20048;-71
2022/03/11 04:02:50;;;;;;;12.70;7.95;;;;;;;7.02;41.69;101488.72;5262831;28;20044;-71
2022/03/11 04:05:22;;;;;;;16.88;8.85;;;;;;;6.98;42.43;101489.84;5267077;28;20025;-71
2022/03/11 04:07:53;;;;;;;10.60;7.38;;;;;;;7.03;41.97;101486.03;5266917;28;20047;-71
2022/03/11 04:10:24;;;;;;;13.13;7.50;;;;;;;6.96;42.15;101484.72;5262727;28;20028;-70
2022/03/11 04:12:57;;;;;;;11.07;7.75;;;;;;;7.00;41.68;101486.19;5244567;28;20440;-71
2022/03/11 04:15:28;;;;;;;14.50;7.88;;;;;;;7.00;41.87;101485.38;5263597;28;20178;-69
2022/03/11 04:17:59;;;;;;;11.88;8.27;;;;;;;7.03;42.14;101487.81;5263581;28;20039;-72
2022/03/11 04:20:31;;;;;;;13.65;7.90;;;;;;;6.97;41.72;101476.00;5265364;28;20039;-72
2022/03/11 04:23:02;;;;;;;10.35;7.68;;;;;;;7.01;42.01;101487.06;5263896;28;20602;-72
2022/03/11 04:25:33;;;;;;;12.25;8.23;;;;;;;6.96;41.44;101482.09;5262701;28;20492;-72
2022/03/11 04:28:05;;;;;;;11.05;8.00;;;;;;;6.91;41.71;101478.94;5245297;28;20085;-72
2022/03/11 04:30:36;;;;;;;10.82;7.55;;;;;;;6.94;42.13;101470.97;5267797;28;20012;-72
2022/03/11 04:33:07;;;;;;;12.80;8.15;;;;;;;6.92;42.01;101466.75;5263557;28;20050;-72
2022/03/11 04:35:39;;;;;;;10.98;7.97;;;;;;;6.94;41.95;101465.75;5259035;28;20378;-71
2022/03/11 04:38:10;;;;;;;10.93;7.63;;;;;;;6.94;41.91;101464.91;5262514;28;20060;-72
2022/03/11 04:40:42;;;;;;;11.98;8.13;;;;;;;6.89;41.56;101465.16;5260420;28;20027;-71
2022/03/11 04:43:13;;;;;;;11.77;7.97;;;;;;;6.88;42.21;101460.06;5258406;28;20063;-72
2022/03/11 04:45:44;;;;;;;10.45;7.32;;;;;;;6.91;41.78;101462.47;5258833;28;20028;-72
2022/03/11 04:48:16;;;;;;;9.55;6.95;;;;;;;6.87;41.64;101467.03;5264646;28;20022;-72
2022/03/11 04:50:47;;;;;;;12.20;7.15;;;;;;;6.89;41.84;101465.16;5265088;28;20025;-71
2022/03/11 04:53:18;;;;;;;10.40;7.18;;;;;;;6.92;41.39;101470.19;5264025;28;20029;-71
2022/03/11 04:55:50;;;;;;;11.07;7.53;;;;;;;6.96;41.54;101463.03;5241976;28;20049;-71
2022/03/11 04:58:21;;;;;;;11.25;7.38;;;;;;;6.85;42.42;101455.84;5262934;28;20021;-71
2022/03/11 05:00:53;;;;;;;11.50;7.45;;;;;;;6.92;41.86;101464.97;5256777;28;20060;-71
2022/03/11 05:03:24;;;;;;;11.05;7.80;;;;;;;6.85;41.83;101462.84;5261216;28;20032;-71
2022/03/11 05:05:55;;;;;;;9.65;7.03;;;;;;;6.89;41.33;101462.56;5262162;28;20024;-71
2022/03/11 05:08:27;;;;;;;10.15;7.85;;;;;;;6.87;41.63;101467.03;5263021;28;20047;-71
2022/03/11 05:10:58;;;;;;;13.38;7.38;;;;;;;6.90;41.39;101461.66;5260429;28;20367;-72
2022/03/11 05:13:29;;;;;;;10.43;6.85;;;;;;;6.88;42.08;101455.69;5262630;28;20024;-71
2022/03/11 05:16:00;;;;;;;11.20;7.32;;;;;;;6.89;41.70;101459.94;5263945;28;20028;-71
2022/03/11 05:18:32;;;;;;;11.20;7.43;;;;;;;6.82;41.59;101456.91;5264356;28;20064;-71
2022/03/11 05:21:03;;;;;;;11.30;7.93;;;;;;;6.82;42.09;101454.28;5263460;28;20025;-71
2022/03/11 05:23:35;;;;;;;9.75;6.78;;;;;;;6.84;42.41;101451.59;5242760;28;20057;-72
2022/03/11 05:26:24;;;;;;;11.65;7.50;;;;;;;6.79;41.64;101451.03;5266373;28;20116;-71
2022/03/11 05:29:00;;;;;;;11.48;7.70;;;;;;;6.79;42.68;101453.63;5245594;28;20477;-71
2022/03/11 05:31:32;;;;;;;13.07;6.50;;;;;;;6.80;42.59;101450.09;5264762;28;20052;-71
2022/03/11 05:34:03;;;;;;;11.98;7.43;;;;;;;6.76;42.33;101451.22;5262146;28;20103;-70
2022/03/11 05:36:35;;;;;;;13.00;7.22;;;;;;;6.77;42.10;101458.09;5262238;28;20481;-71
2022/03/11 05:39:07;;;;;;;10.25;7.10;;;;;;;6.75;42.38;101455.59;5262659;28;20035;-71
2022/03/11 05:41:38;;;;;;;10.10;6.97;;;;;;;6.71;42.93;101454.09;5264779;28;20024;-71
2022/03/11 05:44:09;;;;;;;10.88;6.78;;;;;;;6.72;42.41;101447.94;5265211;28;20021;-72
2022/03/11 05:46:41;;;;;;;11.05;7.50;;;;;;;6.72;42.92;101449.72;5267735;28;20025;-71
2022/03/11 05:49:12;;;;;;;13.80;7.60;;;;;;;6.65;43.01;101445.78;5269479;28;20021;-71
2022/03/11 05:51:44;;;;;;;12.45;7.22;;;;;;;6.57;42.96;101454.88;5265664;28;20048;-72
2022/03/11 05:54:15;;;;;;;9.52;6.43;;;;;;;6.67;42.96;101442.19;5267143;28;20411;-72
2022/03/11 05:56:53;;;;;;;13.00;8.15;;;;;;;6.62;43.47;101444.19;5267430;28;20044;-71
2022/03/11 05:59:25;;;;;;;10.50;7.13;;;;;;;6.56;43.78;101436.75;5247675;28;20481;-70
2022/03/11 06:01:57;;;;;;;13.50;7.43;;;;;;;6.54;43.67;101441.22;5262129;28;20073;-72
2022/03/11 06:04:29;;;;;;;9.90;6.95;;;;;;;6.58;44.22;101440.94;5264345;28;20308;-71
2022/03/11 06:07:00;;;;;;;12.52;8.15;;;;;;;6.56;44.09;101441.97;5269751;28;20032;-71
2022/03/11 06:09:32;;;;;;;11.18;6.93;;;;;;;6.50;44.02;101432.75;5267112;28;20021;-71
2022/03/11 06:12:04;;;;;;;11.35;7.47;;;;;;;6.57;44.57;101436.66;5265885;28;20031;-71
2022/03/11 06:14:35;;;;;;;11.75;7.32;;;;;;;6.60;43.95;101440.84;5268039;28;20025;-71
2022/03/11 06:17:06;;;;;;;12.13;7.35;;;;;;;6.63;43.80;101440.69;5268108;28;20386;-71
2022/03/11 06:19:38;;;;;;;12.20;7.28;;;;;;;6.63;44.21;101439.81;5264848;28;20025;-71
2022/03/11 06:22:09;;;;;;;11.52;7.55;;;;;;;6.60;44.26;101447.84;5270583;28;20016;-71
2022/03/11 06:24:42;;;;;;;12.25;7.25;;;;;;;6.58;44.95;101448.75;5264071;28;20020;-72
2022/03/11 06:27:16;;;;;;;12.32;6.88;;;;;;;6.65;44.45;101446.63;5266007;28;20036;-71
2022/03/11 06:29:47;;;;;;;9.02;7.10;;;;;;;6.61;44.06;101449.50;5266936;28;20090;-71
2022/03/11 06:32:19;;;;;;;14.32;7.60;;;;;;;6.63;44.63;101445.03;5266090;28;20033;-71
2022/03/11 06:34:50;;;;;;;10.88;6.78;;;;;;;6.62;45.08;101448.56;5267774;28;20020;-71
2022/03/11 06:37:22;;;;;;;10.85;6.90;;;;;;;6.60;45.05;101437.44;5263665;28;20129;-71
2022/03/11 06:39:53;;;;;;;10.70;7.40;;;;;;;6.56;45.38;101436.75;5267892;28;20553;-71
2022/03/11 06:42:24;;;;;;;11.48;7.72;;;;;;;6.57;44.91;101443.63;5266941;28;20052;-71
2022/03/11 06:44:55;;;;;;;10.82;7.50;;;;;;;6.65;45.48;101451.84;5246633;28;20036;-71
2022/03/11 06:47:27;;;;;;;13.48;7.43;;;;;;;6.69;45.58;101448.13;5266988;28;20059;-71
2022/03/11 06:49:58;;;;;;;12.75;7.47;;;;;;;6.65;45.14;101449.22;5265801;28;20017;-72
2022/03/11 06:52:30;;;;;;;11.15;7.63;;;;;;;6.68;45.44;101445.63;5262746;28;20028;-71
2022/03/11 06:55:03;;;;;;;9.63;7.22;;;;;;;6.70;45.40;101446.34;5262796;28;20083;-72
2022/03/11 06:57:34;;;;;;;13.35;8.30;;;;;;;6.77;44.77;101452.88;5245591;28;20035;-71
2022/03/11 07:00:08;;;;;;;11.18;7.70;;;;;;;6.84;44.68;101448.97;5265238;28;20523;-71
2022/03/11 07:02:39;;;;;;;11.63;8.10;;;;;;;6.84;45.09;101433.34;5263062;28;20031;-74
2022/03/11 07:05:11;;;;;;;13.65;8.15;;;;;;;6.85;45.31;101431.59;5266110;28;20028;-72
2022/03/11 07:07:42;;;;;;;12.43;7.53;;;;;;;6.86;44.94;101431.50;5263921;28;20040;-72
2022/03/11 07:10:16;;;;;;;10.98;7.55;;;;;;;6.94;44.91;101429.28;5264833;28;20071;-72
2022/03/11 07:12:47;;;;;;;12.25;8.43;;;;;;;6.94;45.15;101426.66;5243894;28;20028;-72
2022/03/11 07:15:18;;;;;;;11.80;7.43;;;;;;;6.97;44.78;101423.88;5265120;28;20056;-71
2022/03/11 07:17:50;;;;;;;11.20;8.00;;;;;;;7.06;44.34;101420.72;5263665;28;20147;-72
2022/03/11 07:20:21;;;;;;;16.00;7.70;;;;;;;7.09;44.46;101421.47;5261461;28;20032;-73
2022/03/11 07:22:52;;;;;;;13.20;8.25;;;;;;;7.18;44.30;101426.09;5262643;28;20680;-72
2022/03/11 07:25:24;;;;;;;14.18;8.20;;;;;;;7.17;44.43;101425.28;5261576;28;20033;-72
2022/03/11 07:27:55;;;;;;;12.63;7.80;;;;;;;7.29;44.29;101419.31;5264359;28;20028;-71
2022/03/11 07:30:26;;;;;;;11.50;7.93;;;;;;;7.30;44.79;101425.34;5263248;28;20077;-72
2022/03/11 07:32:58;;;;;;;13.82;8.57;;;;;;;7.39;44.58;101426.56;5262686;28;20099;-71
2022/03/11 07:35:29;;;;;;;14.30;8.32;;;;;;;7.42;44.09;101428.97;5245649;28;20493;-72
2022/03/11 07:38:00;;;;;;;14.35;8.57;;;;;;;7.38;45.10;101432.69;5264661;28;20036;-72
2022/03/11 07:40:35;;;;;;;10.77;7.57;;;;;;;7.50;44.64;101431.91;5245599;28;20120;-72
2022/03/11 07:43:09;;;;;;;14.48;8.30;;;;;;;7.51;44.47;101424.03;5262262;28;20017;-72
2022/03/11 07:45:40;;;;;;;12.23;8.07;;;;;;;7.56;44.05;101434.16;5227552;28;20032;-72
2022/03/11 07:48:11;;;;;;;14.25;8.52;;;;;;;7.60;44.61;101421.75;5256302;28;20021;-72
2022/03/11 07:50:43;;;;;;;16.00;9.02;;;;;;;7.66;44.44;101413.56;5245516;28;20025;-72
2022/03/11 07:53:14;;;;;;;14.88;8.65;;;;;;;7.76;43.84;101414.63;5240615;28;20077;-71
2022/03/11 07:55:45;;;;;;;13.15;8.05;;;;;;;7.83;43.88;101422.91;5296852;22;20048;-73
2022/03/11 07:58:21;;;;;;;10.23;8.10;;;;;;;7.82;45.09;101416.88;5286966;28;20027;-73
2022/03/11 08:00:52;;;;;;;13.60;8.82;;;;;;;7.87;44.09;101414.78;5290130;28;20039;-73
2022/03/11 08:03:24;;;;;;;12.30;8.18;;;;;;;7.94;43.47;101403.03;5291686;28;20472;-73
2022/03/11 08:05:55;;;;;;;15.68;8.65;;;;;;;7.99;43.87;101400.97;5288639;28;20032;-73
2022/03/11 08:08:27;;;;;;;14.30;8.65;;;;;;;8.15;43.50;101397.34;5281390;28;20024;-73
2022/03/11 08:10:59;;;;;;;13.85;8.63;;;;;;;8.09;43.07;101389.91;5285256;28;20035;-73
2022/03/11 08:13:31;;;;;;;14.10;8.85;;;;;;;8.20;43.59;101384.84;5284961;28;20028;-73
2022/03/11 08:16:03;;;;;;;14.63;9.40;;;;;;;8.19;43.54;101384.00;5283767;28;20032;-73
2022/03/11 08:18:35;;;;;;;14.80;9.40;;;;;;;8.34;43.28;101399.59;5282078;28;20028;-74
2022/03/11 08:21:07;;;;;;;11.05;7.97;;;;;;;8.40;43.35;101394.81;5274457;28;20024;-73
2022/03/11 08:23:40;;;;;;;14.75;8.80;;;;;;;8.50;43.07;101393.25;5258732;28;20503;-73
2022/03/11 08:26:12;;;;;;;14.20;9.23;;;;;;;8.44;43.19;101391.03;5265246;28;20477;-74
2022/03/11 08:28:43;;;;;;;14.02;8.63;;;;;;;8.67;43.06;101401.72;5282060;28;20438;-72
2022/03/11 08:31:14;;;;;;;15.50;8.68;;;;;;;8.61;42.87;101392.53;5266694;28;20025;-72
2022/03/11 08:33:46;;;;;;;15.50;9.23;;;;;;;8.76;43.30;101394.09;5282210;28;20457;-72
2022/03/11 08:36:17;;;;;;;13.93;9.10;;;;;;;8.94;42.80;101388.53;5283257;28;20054;-72
2022/03/11 08:38:48;;;;;;;14.38;9.30;;;;;;;9.05;42.47;101387.81;5284984;28;20020;-73
2022/03/11 08:41:22;;;;;;;13.38;9.18;;;;;;;9.02;42.37;101375.81;5281443;28;20035;-72
2022/03/11 08:43:54;;;;;;;14.10;9.60;;;;;;;9.13;42.12;101388.09;5282462;28;20031;-72
2022/03/11 08:46:26;;;;;;;17.50;9.70;;;;;;;9.23;42.45;101382.13;5282474;28;20031;-73
2022/03/11 08:48:57;;;;;;;14.85;8.85;;;;;;;9.34;42.48;101381.38;5283241;28;20024;-72
2022/03/11 08:51:29;;;;;;;14.18;9.23;;;;;;;9.47;41.98;101376.94;5286168;28;20048;-72
2022/03/11 08:54:02;;;;;;;13.65;9.23;;;;;;;9.50;42.04;101389.78;5285463;28;20020;-72
2022/03/11 08:56:33;;;;;;;13.33;9.10;;;;;;;9.61;41.89;101381.16;5282093;28;20048;-72
2022/03/11 08:59:05;;;;;;;14.55;9.10;;;;;;;9.67;41.63;101380.72;5265308;28;20372;-72
2022/03/11 09:01:36;;;;;;;13.40;9.15;;;;;;;9.87;41.55;101376.66;5284381;28;20024;-72
2022/03/11 09:04:07;;;;;;;12.88;9.18;;;;;;;9.99;40.94;101367.91;5279550;28;20073;-73
2022/03/11 09:06:39;;;;;;;12.85;9.07;;;;;;;10.10;41.19;101371.50;5280333;28;20016;-73
2022/03/11 09:09:10;;;;;;;13.45;9.30;;;;;;;10.14;40.48;101363.31;5279961;28;20030;-73
2022/03/11 09:11:41;;;;;;;17.50;9.40;;;;;;;10.40;40.93;101355.31;5280628;28;20401;-73
2022/03/11 09:14:13;;;;;;;15.70;9.63;;;;;;;10.46;40.98;101363.53;5282410;28;20141;-73
2022/03/11 09:16:44;;;;;;;13.45;8.93;;;;;;;10.43;40.44;101355.91;5286274;28;20108;-74
2022/03/11 09:19:16;;;;;;;16.77;9.18;;;;;;;10.66;40.16;101361.19;5287494;28;20110;-73
2022/03/11 09:21:47;;;;;;;14.27;10.02;;;;;;;10.55;40.70;101363.78;5286424;28;20061;-74
2022/03/11 09:24:19;;;;;;;13.13;9.65;;;;;;;10.71;40.81;101348.56;5282473;28;20718;-74
2022/03/11 09:26:52;;;;;;;14.15;9.25;;;;;;;10.82;40.34;101348.56;5285938;28;20046;-73
2022/03/11 09:29:23;;;;;;;14.73;10.32;;;;;;;10.91;40.18;101342.63;5283451;28;20043;-73
2022/03/11 09:31:56;;;;;;;17.02;9.60;;;;;;;11.03;39.64;101347.84;5282666;28;20036;-74
2022/03/11 09:34:27;;;;;;;15.17;10.50;;;;;;;11.11;40.15;101340.22;5276015;28;20028;-73
2022/03/11 09:36:58;;;;;;;15.05;9.93;;;;;;;11.28;39.82;101326.56;5283934;28;20393;-74
2022/03/11 09:39:29;;;;;;;14.55;9.75;;;;;;;11.42;39.96;101336.78;5270815;28;20376;-74
2022/03/11 09:42:02;;;;;;;15.25;9.00;;;;;;;11.43;40.37;101327.13;5282876;28;20056;-73
2022/03/11 09:44:34;;;;;;;12.55;9.15;;;;;;;11.54;39.72;101313.97;5286508;28;20086;-73
2022/03/11 09:47:05;;;;;;;15.75;9.50;;;;;;;11.74;39.23;101324.63;5285843;28;20467;-73
2022/03/11 09:49:37;;;;;;;15.50;9.48;;;;;;;11.82;38.55;101324.81;5289014;28;20028;-73
2022/03/11 09:52:09;;;;;;;14.40;9.23;;;;;;;11.92;39.35;101310.03;5287948;28;20027;-73
2022/03/11 09:54:42;;;;;;;13.23;9.77;;;;;;;12.10;38.74;101307.66;5285697;28;20852;-72
2022/03/11 09:57:24;;;;;;;15.50;9.13;;;;;;;12.23;38.40;101304.81;5284225;28;20039;-72
2022/03/11 09:59:55;;;;;;;14.07;9.20;;;;;;;12.26;39.17;101302.78;5282913;28;20051;-73
2022/03/11 10:02:26;;;;;;;12.45;9.45;;;;;;;12.40;38.64;101301.63;5283789;28;20037;-72
2022/03/11 10:04:57;;;;;;;16.10;9.68;;;;;;;12.45;38.66;101298.59;5284342;28;20031;-73
2022/03/11 10:07:31;;;;;;;16.33;10.05;;;;;;;12.57;38.33;101302.78;5272970;28;20024;-72
2022/03/11 10:10:14;;;;;;;;;;;;;;;13.01;37.93;101295.47;5285279;28;20020;-72
2022/03/11 10:12:47;;;;;;;15.25;8.95;;;;;;;12.73;38.01;101295.25;5279889;28;20268;-73
2022/03/11 10:15:29;;;;;;;13.93;10.20;;;;;;;12.82;38.57;101286.56;5284699;28;20060;-73
2022/03/11 10:18:03;;;;;;;14.98;9.85;;;;;;;12.73;38.40;101281.25;5284608;28;20074;-73
2022/03/11 10:20:36;;;;;;;15.55;10.23;;;;;;;12.84;38.38;101289.91;5279741;28;20083;-73
2022/03/11 10:23:10;;;;;;;12.52;9.30;;;;;;;13.03;38.09;101273.34;5284676;28;20031;-73
2022/03/11 10:25:41;;;;;;;15.57;9.23;;;;;;;13.15;37.82;101284.56;5284398;28;20238;-73
2022/03/11 10:28:14;;;;;;;15.98;9.43;;;;;;;13.25;37.97;101271.44;5285248;28;20058;-73
2022/03/11 10:30:45;;;;;;;19.02;9.43;;;;;;;13.31;37.96;101287.53;5285221;28;20112;-73
2022/03/11 10:33:16;;;;;;;13.20;9.35;;;;;;;13.25;38.27;101274.09;5284628;28;20032;-74
2022/03/11 10:35:48;;;;;;;14.55;9.43;;;;;;;13.34;37.64;101266.22;5267481;28;20463;-74
2022/03/11 10:38:26;;;;;;;16.63;9.32;;;;;;;13.66;37.62;101264.25;5282984;28;20107;-73
2022/03/11 10:40:58;;;;;;;14.25;9.10;;;;;;;13.60;37.75;101255.97;5283521;28;20070;-74
2022/03/11 10:43:32;;;;;;;15.03;9.20;;;;;;;13.79;37.38;101255.09;5279920;28;20036;-74
2022/03/11 10:46:03;;;;;;;15.15;9.02;;;;;;;13.81;37.54;101258.41;5279334;28;20043;-74
2022/03/11 10:48:49;;;;;;;14.27;9.00;;;;;;;14.05;37.28;101259.75;5283257;28;20488;-74
2022/03/11 10:51:32;;;;;;;11.70;8.43;;;;;;;14.19;36.91;101251.41;5280352;28;20285;-74
2022/03/11 10:54:05;;;;;;;10.02;7.85;;;;;;;14.31;37.33;101239.69;5281259;28;20036;-74
2022/03/11 10:56:39;;;;;;;12.63;9.15;;;;;;;14.43;36.83;101236.88;5285592;28;20052;-74
2022/03/11 10:59:25;;;;;;;12.48;8.73;;;;;;;14.48;36.82;101229.38;5283784;28;20028;-74
2022/03/11 11:01:57;;;;;;;15.73;9.50;;;;;;;14.45;36.74;101233.13;5281064;28;20094;-73
2022/03/11 11:04:29;;;;;;;15.50;9.97;;;;;;;14.59;36.61;101222.13;5283082;28;20548;-72
2022/03/11 11:07:01;;;;;;;16.90;9.88;;;;;;;14.60;36.44;101225.59;5282288;28;20024;-73
2022/03/11 11:09:33;;;;;;;13.23;9.98;;;;;;;14.44;36.29;101209.56;5285708;28;20043;-73
2022/03/11 11:12:05;;;;;;;13.93;10.32;;;;;;;14.39;36.50;101236.34;5285792;28;20030;-73
2022/03/11 11:14:36;;;;;;;13.57;9.63;;;;;;;14.51;36.25;101218.56;5282840;28;20032;-73
2022/03/11 11:17:10;;;;;;;15.82;11.00;;;;;;;14.54;36.22;101223.53;5284344;28;20020;-73
2022/03/11 11:19:42;;;;;;;19.02;10.48;;;;;;;14.45;36.39;101212.03;5285800;28;20085;-73
2022/03/11 11:22:15;;;;;;;14.43;10.80;;;;;;;14.48;35.95;101213.56;5283277;28;20500;-73
2022/03/11 11:24:49;;;;;;;18.55;11.73;;;;;;;14.60;36.22;101223.78;5285853;28;20020;-73
2022/03/11 11:27:21;;;;;;;22.30;11.00;;;;;;;14.66;36.10;101214.47;5285267;28;20045;-73
2022/03/11 11:29:53;;;;;;;14.15;10.35;;;;;;;14.63;35.73;101214.75;5285360;28;20051;-72
2022/03/11 11:32:25;;;;;;;17.38;10.75;;;;;;;14.67;36.15;101202.94;5284200;28;20035;-73
2022/03/11 11:35:24;;;;;;;15.77;11.40;;;;;;;14.90;35.93;101200.69;5282367;28;20115;-73
2022/03/11 11:37:58;;;;;;;15.80;10.68;;;;;;;14.94;36.09;101193.31;5282600;28;20678;-73
2022/03/11 11:40:37;;;;;;;15.85;10.70;;;;;;;14.96;35.98;101178.97;5281183;28;20033;-73
2022/03/11 11:43:11;;;;;;;14.90;10.70;;;;;;;15.08;36.16;101182.25;5278776;28;20025;-73
2022/03/11 11:45:53;;;;;;;17.67;10.15;;;;;;;15.12;36.11;101173.03;5282885;28;20082;-73
2022/03/11 11:48:33;;;;;;;14.43;10.45;;;;;;;15.22;35.56;101172.94;5281127;28;20032;-73